createdAt,value
2024-04-17T00:00:46.887Z,25.3500
2024-04-17T00:01:49.123Z,25.3500
2024-04-17T00:02:51.258Z,25.3400
2024-04-17T00:03:53.534Z,25.3300
2024-04-17T00:04:53.597Z,25.3200
2024-04-17T00:05:55.763Z,25.3100
2024-04-17T00:06:58.007Z,25.3000
2024-04-17T00:08:00.246Z,25.2900
2024-04-17T00:09:02.440Z,25.2900
2024-04-17T00:10:04.668Z,25.2900
2024-04-17T00:11:07.067Z,25.2800
2024-04-17T00:12:09.132Z,25.2800
2024-04-17T00:13:11.381Z,25.2800
2024-04-17T00:14:13.650Z,25.2700
2024-04-17T00:15:15.791Z,25.2800
2024-04-17T00:16:17.986Z,25.2700
2024-04-17T00:17:18.101Z,25.2700
2024-04-17T00:18:20.339Z,25.2600
2024-04-17T00:19:22.573Z,25.2600
2024-04-17T00:20:24.776Z,25.2600
2024-04-17T00:21:26.965Z,25.2500
2024-04-17T00:22:29.184Z,25.2500
2024-04-17T00:23:31.360Z,25.2500
2024-04-17T00:24:33.635Z,25.2500
2024-04-17T00:25:35.863Z,25.2400
2024-04-17T00:26:38.018Z,25.2200
2024-04-17T00:27:40.221Z,25.2100
2024-04-17T00:28:42.448Z,25.2100
2024-04-17T00:29:44.626Z,25.1900
2024-04-17T00:30:46.786Z,25.1800
2024-04-17T00:31:49.068Z,25.1700
2024-04-17T00:32:49.078Z,25.1700
2024-04-17T00:33:51.236Z,25.1600
2024-04-17T00:34:53.366Z,25.1600
2024-04-17T00:35:55.496Z,25.1500
2024-04-17T00:36:57.662Z,25.1600
2024-04-17T00:37:59.866Z,25.1600
2024-04-17T00:39:02.037Z,25.1600
2024-04-17T00:40:04.254Z,25.1600
2024-04-17T00:41:06.422Z,25.1700
2024-04-17T00:42:08.609Z,25.1700
2024-04-17T00:43:10.848Z,25.1600
2024-04-17T00:44:12.996Z,25.1700
2024-04-17T00:45:15.214Z,25.1600
2024-04-17T00:46:17.407Z,25.1600
2024-04-17T00:47:19.638Z,25.1600
2024-04-17T00:48:21.932Z,25.1500
2024-04-17T00:49:24.099Z,25.1400
2024-04-17T00:50:26.288Z,25.1400
2024-04-17T00:51:28.515Z,25.1300
2024-04-17T00:52:28.634Z,25.1200
2024-04-17T00:53:30.801Z,25.1200
2024-04-17T00:54:32.988Z,25.1000
2024-04-17T00:55:35.273Z,25.0900
2024-04-17T00:56:37.449Z,25.0800
2024-04-17T00:57:39.709Z,25.0700
2024-04-17T00:58:41.998Z,25.0600
2024-04-17T00:59:44.222Z,25.0600
2024-04-17T01:00:46.543Z,25.0500
2024-04-17T01:01:48.809Z,25.0400
2024-04-17T01:02:51.063Z,25.0400
2024-04-17T01:03:51.173Z,25.0400
2024-04-17T01:04:53.432Z,25.0400
2024-04-17T01:05:55.612Z,25.0300
2024-04-17T01:06:57.821Z,25.0400
2024-04-17T01:08:00.145Z,25.0300
2024-04-17T01:09:02.280Z,25.0400
2024-04-17T01:10:04.498Z,25.0400
2024-04-17T01:11:06.970Z,25.0300
2024-04-17T01:12:08.993Z,25.0300
2024-04-17T01:13:11.220Z,25.0300
2024-04-17T01:14:13.484Z,25.0300
2024-04-17T01:15:13.565Z,25.0300
2024-04-17T01:16:15.764Z,25.0300
2024-04-17T01:17:17.992Z,25.0300
2024-04-17T01:18:20.182Z,25.0300
2024-04-17T01:19:22.456Z,25.0300
2024-04-17T01:20:24.623Z,25.0400
2024-04-17T01:21:26.851Z,25.0400
2024-04-17T01:22:29.107Z,25.0500
2024-04-17T01:23:31.193Z,25.0500
2024-04-17T01:24:33.384Z,25.0500
2024-04-17T01:25:35.678Z,25.0400
2024-04-17T01:26:37.943Z,25.0400
2024-04-17T01:27:40.167Z,25.0300
2024-04-17T01:28:40.299Z,25.0300
2024-04-17T01:29:42.529Z,25.0400
2024-04-17T01:30:44.789Z,25.0500
2024-04-17T01:31:47.084Z,25.0600
2024-04-17T01:32:49.427Z,25.0700
2024-04-17T01:33:51.560Z,25.0900
2024-04-17T01:34:53.924Z,25.1000
2024-04-17T01:35:55.954Z,25.1100
2024-04-17T01:36:58.204Z,25.1300
2024-04-17T01:38:00.474Z,25.1300
2024-04-17T01:39:02.644Z,25.1300
2024-04-17T01:40:02.677Z,25.1400
2024-04-17T01:41:04.928Z,25.1400
2024-04-17T01:42:07.236Z,25.1500
2024-04-17T01:43:12.492Z,25.1500
2024-04-17T01:44:11.714Z,25.1400
2024-04-17T01:45:13.999Z,25.1400
2024-04-17T01:46:16.268Z,25.1400
2024-04-17T01:47:18.519Z,25.1400
2024-04-17T01:48:20.799Z,25.1400
2024-04-17T01:49:20.882Z,25.1500
2024-04-17T01:50:23.137Z,25.1500
2024-04-17T01:51:25.394Z,25.1500
2024-04-17T01:52:27.695Z,25.1500
2024-04-17T01:53:29.841Z,25.1500
2024-04-17T01:54:32.060Z,25.1500
2024-04-17T01:55:34.436Z,25.1500
2024-04-17T01:56:36.564Z,25.1500
2024-04-17T01:57:38.815Z,25.1600
2024-04-17T01:58:38.941Z,25.1600
2024-04-17T01:59:41.137Z,25.1600
2024-04-17T02:00:43.412Z,25.1600
2024-04-17T02:01:45.629Z,25.1500
2024-04-17T02:02:47.935Z,25.1500
2024-04-17T02:03:50.188Z,25.1500
2024-04-17T02:04:52.521Z,25.1500
2024-04-17T02:05:54.672Z,25.1500
2024-04-17T02:06:56.904Z,25.1500
2024-04-17T02:07:59.236Z,25.1400
2024-04-17T02:08:59.300Z,25.1400
2024-04-17T02:10:01.531Z,25.1400
2024-04-17T02:11:03.853Z,25.1400
2024-04-17T02:12:06.068Z,25.1300
2024-04-17T02:13:08.358Z,25.1400
2024-04-17T02:14:10.566Z,25.1300
2024-04-17T02:15:12.813Z,25.1400
2024-04-17T02:16:15.104Z,25.1400
2024-04-17T02:17:17.451Z,25.1400
2024-04-17T02:18:17.651Z,25.1400
2024-04-17T02:19:19.796Z,25.1500
2024-04-17T02:20:22.061Z,25.1500
2024-04-17T02:21:24.241Z,25.1500
2024-04-17T02:22:26.483Z,25.1500
2024-04-17T02:23:28.728Z,25.1600
2024-04-17T02:24:31.022Z,25.1600
2024-04-17T02:25:33.274Z,25.1600
2024-04-17T02:26:33.338Z,25.1600
2024-04-17T02:27:35.606Z,25.1600
2024-04-17T02:28:37.895Z,25.1600
2024-04-17T02:29:40.124Z,25.1600
2024-04-17T02:30:42.388Z,25.1500
2024-04-17T02:31:44.680Z,25.1500
2024-04-17T02:32:47.015Z,25.1500
2024-04-17T02:33:49.216Z,25.1400
2024-04-17T02:34:51.458Z,25.1400
2024-04-17T02:35:53.531Z,25.1400
2024-04-17T02:36:53.603Z,25.1400
2024-04-17T02:37:55.893Z,25.1300
2024-04-17T02:38:58.042Z,25.1300
2024-04-17T02:40:00.321Z,25.1300
2024-04-17T02:41:02.525Z,25.1300
2024-04-17T02:42:04.662Z,25.1300
2024-04-17T02:43:06.846Z,25.1200
2024-04-17T02:44:09.114Z,25.1100
2024-04-17T02:45:11.318Z,25.1000
2024-04-17T02:46:13.529Z,25.1000
2024-04-17T02:47:15.780Z,25.0900
2024-04-17T02:48:18.010Z,25.0900
2024-04-17T02:50:39.800Z,25.0600
2024-04-17T02:51:41.964Z,25.0700
2024-04-17T02:52:44.224Z,25.0700
2024-04-17T02:53:46.465Z,25.0700
2024-04-17T02:54:48.650Z,25.0700
2024-04-17T02:55:48.848Z,25.0600
2024-04-17T02:56:50.942Z,25.0500
2024-04-17T02:57:53.171Z,25.0400
2024-04-17T02:58:55.484Z,25.0400
2024-04-17T02:59:57.660Z,25.0400
2024-04-17T03:00:59.958Z,25.0300
2024-04-17T03:02:02.239Z,25.0300
2024-04-17T03:03:04.442Z,25.0200
2024-04-17T03:04:06.631Z,25.0100
2024-04-17T03:05:08.866Z,25.0000
2024-04-17T03:06:11.091Z,25.0000
2024-04-17T03:07:13.214Z,24.9900
2024-04-17T03:08:13.253Z,24.9900
2024-04-17T03:09:15.423Z,24.9900
2024-04-17T03:10:17.649Z,24.9900
2024-04-17T03:11:19.935Z,24.9900
2024-04-17T03:12:22.082Z,24.9800
2024-04-17T03:13:24.304Z,24.9700
2024-04-17T03:14:26.514Z,24.9600
2024-04-17T03:15:28.769Z,24.9500
2024-04-17T03:16:30.985Z,24.9500
2024-04-17T03:17:33.177Z,24.9400
2024-04-17T03:18:35.446Z,24.9400
2024-04-17T03:19:37.622Z,24.9300
2024-04-17T03:20:39.835Z,24.9200
2024-04-17T03:21:42.117Z,24.9100
2024-04-17T03:22:42.190Z,24.9000
2024-04-17T03:23:44.334Z,24.8900
2024-04-17T03:24:46.551Z,24.8800
2024-04-17T03:25:48.803Z,24.8800
2024-04-17T03:26:51.032Z,24.8700
2024-04-17T03:27:53.250Z,24.8700
2024-04-17T03:28:55.532Z,24.8700
2024-04-17T03:29:57.774Z,24.8700
2024-04-17T03:31:00.056Z,24.8700
2024-04-17T03:32:02.420Z,24.8700
2024-04-17T03:33:02.551Z,24.8700
2024-04-17T03:34:04.759Z,24.8600
2024-04-17T03:35:07.004Z,24.8600
2024-04-17T03:36:09.196Z,24.8600
2024-04-17T03:37:11.427Z,24.8500
2024-04-17T03:38:13.623Z,24.8500
2024-04-17T03:39:15.871Z,24.8500
2024-04-17T03:40:18.145Z,24.8500
2024-04-17T03:41:20.361Z,24.8600
2024-04-17T03:42:23.714Z,24.8700
2024-04-17T03:43:24.881Z,24.8700
2024-04-17T03:44:24.902Z,24.8700
2024-04-17T03:45:27.126Z,24.8800
2024-04-17T03:46:29.366Z,24.8900
2024-04-17T03:47:31.716Z,24.8900
2024-04-17T03:48:33.911Z,24.8900
2024-04-17T03:49:36.140Z,24.8800
2024-04-17T03:50:38.389Z,24.8800
2024-04-17T03:51:40.646Z,24.8700
2024-04-17T03:52:42.953Z,24.8700
2024-04-17T03:53:45.156Z,24.8600
2024-04-17T03:54:47.352Z,24.8500
2024-04-17T03:55:49.602Z,24.8400
2024-04-17T03:56:51.870Z,24.8200
2024-04-17T03:57:54.151Z,24.8200
2024-04-17T03:58:56.389Z,24.8400
2024-04-17T03:59:58.520Z,24.8700
2024-04-17T04:01:00.741Z,24.9100
2024-04-17T04:02:03.183Z,24.9500
2024-04-17T04:03:05.271Z,24.9700
2024-04-17T04:04:07.374Z,25.0100
2024-04-17T04:05:09.615Z,25.0300
2024-04-17T04:06:11.746Z,25.0800
2024-04-17T04:07:13.944Z,25.1400
2024-04-17T04:08:13.997Z,25.1800
2024-04-17T04:09:16.168Z,25.2200
2024-04-17T04:10:18.338Z,25.2400
2024-04-17T04:11:20.573Z,25.2600
2024-04-17T04:12:22.746Z,25.2800
2024-04-17T04:13:24.987Z,25.3000
2024-04-17T04:14:27.159Z,25.3200
2024-04-17T04:15:29.371Z,25.3400
2024-04-17T04:16:31.609Z,25.3500
2024-04-17T04:17:33.879Z,25.3600
2024-04-17T04:18:36.079Z,25.3700
2024-04-17T04:19:38.260Z,25.3800
2024-04-17T04:20:40.506Z,25.4000
2024-04-17T04:21:42.754Z,25.4200
2024-04-17T04:22:45.036Z,25.4300
2024-04-17T04:23:45.111Z,25.4400
2024-04-17T04:24:47.309Z,25.4500
2024-04-17T04:25:49.583Z,25.4600
2024-04-17T04:26:51.788Z,25.4800
2024-04-17T04:27:53.979Z,25.5000
2024-04-17T04:28:56.269Z,25.5100
2024-04-17T04:29:56.291Z,25.5100
2024-04-17T04:30:58.528Z,25.5200
2024-04-17T04:32:00.822Z,25.5400
2024-04-17T04:33:03.103Z,25.5400
2024-04-17T04:34:05.321Z,25.5500
2024-04-17T04:35:07.553Z,25.5600
2024-04-17T04:36:09.782Z,25.5700
2024-04-17T04:37:12.033Z,25.5800
2024-04-17T04:38:14.254Z,25.5900
2024-04-17T04:39:16.524Z,25.5900
2024-04-17T04:40:16.624Z,25.5900
2024-04-17T04:41:18.831Z,25.6000
2024-04-17T04:42:21.081Z,25.6000
2024-04-17T04:43:23.304Z,25.6100
2024-04-17T04:44:25.498Z,25.6200
2024-04-17T04:45:27.642Z,25.6200
2024-04-17T04:46:29.849Z,25.6300
2024-04-17T04:47:32.042Z,25.6500
2024-04-17T04:48:34.191Z,25.6600
2024-04-17T04:49:36.425Z,25.6700
2024-04-17T04:50:38.527Z,25.6700
2024-04-17T04:51:40.683Z,25.6800
2024-04-17T04:52:42.906Z,25.6900
2024-04-17T04:53:45.087Z,25.7000
2024-04-17T04:54:47.331Z,25.7000
2024-04-17T04:55:49.597Z,25.7100
2024-04-17T04:56:51.747Z,25.7100
2024-04-17T04:57:53.952Z,25.7200
2024-04-17T04:58:54.063Z,25.7200
2024-04-17T04:59:56.267Z,25.7300
2024-04-17T05:00:58.434Z,25.7300
2024-04-17T05:02:00.682Z,25.7400
2024-04-17T05:03:02.954Z,25.7600
2024-04-17T05:04:05.124Z,25.7500
2024-04-17T05:05:07.301Z,25.6400
2024-04-17T05:06:09.440Z,25.5500
2024-04-17T05:07:11.645Z,25.5000
2024-04-17T05:08:13.943Z,25.4700
2024-04-17T05:09:16.101Z,25.4700
2024-04-17T05:10:18.339Z,25.4700
2024-04-17T05:11:20.614Z,25.4700
2024-04-17T05:12:20.696Z,25.4800
2024-04-17T05:13:22.939Z,25.4800
2024-04-17T05:14:25.156Z,25.4800
2024-04-17T05:15:27.373Z,25.4900
2024-04-17T05:16:29.513Z,25.5100
2024-04-17T05:17:31.782Z,25.5300
2024-04-17T05:18:33.998Z,25.5300
2024-04-17T05:19:36.187Z,25.5500
2024-04-17T05:20:38.444Z,25.5600
2024-04-17T05:21:40.664Z,25.5800
2024-04-17T05:22:42.914Z,25.6100
2024-04-17T05:23:45.078Z,25.6300
2024-04-17T05:24:47.245Z,25.6400
2024-04-17T05:25:49.532Z,25.6500
2024-04-17T05:26:51.650Z,25.6500
2024-04-17T05:27:51.706Z,25.6600
2024-04-17T05:28:54.033Z,25.6700
2024-04-17T05:29:56.063Z,25.6700
2024-04-17T05:30:58.293Z,25.6600
2024-04-17T05:32:00.537Z,25.6500
2024-04-17T05:33:02.749Z,25.6500
2024-04-17T05:34:04.842Z,25.6500
2024-04-17T05:35:06.959Z,25.6600
2024-04-17T05:36:09.158Z,25.6500
2024-04-17T05:37:11.322Z,25.6500
2024-04-17T05:38:13.506Z,25.6600
2024-04-17T05:39:15.703Z,25.6500
2024-04-17T05:40:17.914Z,25.6400
2024-04-17T05:41:20.100Z,25.6100
2024-04-17T05:42:22.304Z,25.6100
2024-04-17T05:43:24.554Z,25.6200
2024-04-17T05:44:26.755Z,25.6200
2024-04-17T05:45:28.943Z,25.6000
2024-04-17T05:46:31.227Z,25.5900
2024-04-17T05:47:33.436Z,25.5700
2024-04-17T05:48:35.564Z,25.5600
2024-04-17T05:49:35.627Z,25.5500
2024-04-17T05:50:37.772Z,25.5500
2024-04-17T05:51:39.984Z,25.5400
2024-04-17T05:52:42.212Z,25.5300
2024-04-17T05:53:44.335Z,25.5200
2024-04-17T05:54:46.531Z,25.5100
2024-04-17T05:55:48.751Z,25.5200
2024-04-17T05:56:51.010Z,25.5300
2024-04-17T05:57:53.220Z,25.5400
2024-04-17T05:58:55.472Z,25.5300
2024-04-17T05:59:57.662Z,25.5400
2024-04-17T06:01:00.434Z,25.5400
2024-04-17T06:02:02.127Z,25.5500
2024-04-17T06:03:04.396Z,25.5500
2024-04-17T06:04:04.418Z,25.5500
2024-04-17T06:05:06.690Z,25.5600
2024-04-17T06:06:08.780Z,25.5500
2024-04-17T06:07:10.977Z,25.5600
2024-04-17T06:08:13.216Z,25.5700
2024-04-17T06:09:15.454Z,25.5700
2024-04-17T06:10:17.671Z,25.5700
2024-04-17T06:11:19.995Z,25.5800
2024-04-17T06:12:22.126Z,25.5800
2024-04-17T06:13:24.383Z,25.5800
2024-04-17T06:14:26.592Z,25.5900
2024-04-17T06:15:28.837Z,25.5700
2024-04-17T06:16:31.089Z,25.5900
2024-04-17T06:17:31.231Z,25.6000
2024-04-17T06:18:33.459Z,25.6000
2024-04-17T06:19:35.644Z,25.6100
2024-04-17T06:20:37.796Z,25.6000
2024-04-17T06:21:39.972Z,25.6100
2024-04-17T06:22:42.221Z,25.6100
2024-04-17T06:23:44.402Z,25.6000
2024-04-17T06:24:46.630Z,25.6000
2024-04-17T06:25:48.954Z,25.5800
2024-04-17T06:26:51.066Z,25.5700
2024-04-17T06:27:53.271Z,25.5900
2024-04-17T06:28:55.516Z,25.6000
2024-04-17T06:29:57.595Z,25.5900
2024-04-17T06:30:59.779Z,25.5900
2024-04-17T06:32:02.180Z,25.5700
2024-04-17T06:33:04.285Z,25.5700
2024-04-17T06:34:04.232Z,25.6000
2024-04-17T06:35:06.437Z,25.6100
2024-04-17T06:36:08.619Z,25.6300
2024-04-17T06:37:10.846Z,25.6300
2024-04-17T06:38:13.027Z,25.6300
2024-04-17T06:39:15.118Z,25.6300
2024-04-17T06:40:17.236Z,25.6400
2024-04-17T06:41:19.387Z,25.6500
2024-04-17T06:42:21.564Z,25.6600
2024-04-17T06:43:23.781Z,25.6700
2024-04-17T06:44:25.900Z,25.6900
2024-04-17T06:45:28.070Z,25.7000
2024-04-17T06:46:30.288Z,25.6500
2024-04-17T06:47:32.525Z,25.6200
2024-04-17T06:48:34.667Z,25.6300
2024-04-17T06:49:36.707Z,25.6400
2024-04-17T06:50:38.870Z,25.6400
2024-04-17T06:51:41.070Z,25.6300
2024-04-17T06:52:43.220Z,25.6400
2024-04-17T06:53:45.312Z,25.6400
2024-04-17T06:54:47.411Z,25.6500
2024-04-17T06:55:47.521Z,25.6500
2024-04-17T06:56:49.561Z,25.6500
2024-04-17T06:57:51.760Z,25.6500
2024-04-17T06:58:54.063Z,25.6500
2024-04-17T06:59:56.154Z,25.6300
2024-04-17T07:00:58.373Z,25.6200
2024-04-17T07:02:00.710Z,25.6200
2024-04-17T07:03:05.163Z,25.6200
2024-04-17T07:04:05.000Z,25.6100
2024-04-17T07:05:07.194Z,25.6200
2024-04-17T07:06:09.381Z,25.6200
2024-04-17T07:07:11.621Z,25.6200
2024-04-17T07:08:13.841Z,25.6000
2024-04-17T07:09:13.976Z,25.6100
2024-04-17T07:10:16.179Z,25.5900
2024-04-17T07:11:18.528Z,25.5800
2024-04-17T07:12:20.572Z,25.5900
2024-04-17T07:13:22.793Z,25.6200
2024-04-17T07:14:24.965Z,25.6200
2024-04-17T07:15:27.123Z,25.6100
2024-04-17T07:16:29.312Z,25.6000
2024-04-17T07:17:31.430Z,25.6000
2024-04-17T07:18:33.681Z,25.5800
2024-04-17T07:19:35.946Z,25.5600
2024-04-17T07:20:38.098Z,25.5600
2024-04-17T07:21:40.309Z,25.5700
2024-04-17T07:22:42.572Z,25.5900
2024-04-17T07:23:44.730Z,25.6000
2024-04-17T07:24:44.867Z,25.6100
2024-04-17T07:25:47.062Z,25.6000
2024-04-17T07:26:49.262Z,25.6000
2024-04-17T07:27:51.483Z,25.5900
2024-04-17T07:28:53.772Z,25.5900
2024-04-17T07:29:55.939Z,25.5900
2024-04-17T07:30:58.115Z,25.5900
2024-04-17T07:32:00.494Z,25.5900
2024-04-17T07:33:02.630Z,25.5900
2024-04-17T07:34:04.766Z,25.5900
2024-04-17T07:35:06.996Z,25.5900
2024-04-17T07:36:09.154Z,25.5900
2024-04-17T07:37:11.287Z,25.5900
2024-04-17T07:38:13.496Z,25.5900
2024-04-17T07:39:15.688Z,25.6000
2024-04-17T07:40:17.905Z,25.5900
2024-04-17T07:41:20.490Z,25.6000
2024-04-17T07:42:22.260Z,25.5900
2024-04-17T07:43:24.407Z,25.5900
2024-04-17T07:44:26.579Z,25.6000
2024-04-17T07:45:28.878Z,25.6000
2024-04-17T07:46:31.016Z,25.5900
2024-04-17T07:47:33.257Z,25.5900
2024-04-17T07:48:35.521Z,25.5900
2024-04-17T07:49:37.624Z,25.5700
2024-04-17T07:50:39.806Z,25.5700
2024-04-17T07:51:41.958Z,25.5700
2024-04-17T07:52:44.221Z,25.5800
2024-04-17T07:54:42.125Z,25.5500
2024-04-17T07:55:44.210Z,25.5500
2024-04-17T07:56:46.358Z,25.5600
2024-04-17T07:57:48.460Z,25.5600
2024-04-17T07:58:50.644Z,25.5600
2024-04-17T07:59:52.777Z,25.5600
2024-04-17T08:00:54.985Z,25.5700
2024-04-17T08:01:57.186Z,25.5700
2024-04-17T08:02:59.306Z,25.5700
2024-04-17T08:04:01.408Z,25.5800
2024-04-17T08:05:03.545Z,25.5700
2024-04-17T08:06:05.719Z,25.5700
2024-04-17T08:07:07.806Z,25.5600
2024-04-17T08:08:09.971Z,25.5600
2024-04-17T08:09:12.111Z,25.5800
2024-04-17T08:10:14.258Z,25.5900
2024-04-17T08:11:16.416Z,25.5900
2024-04-17T08:12:18.522Z,25.5900
2024-04-17T08:13:20.668Z,25.5900
2024-04-17T08:14:22.830Z,25.5900
2024-04-17T08:15:24.948Z,25.5900
2024-04-17T08:16:27.205Z,25.5900
2024-04-17T08:17:29.405Z,25.5900
2024-04-17T08:18:31.420Z,25.5800
2024-04-17T08:19:33.602Z,25.5700
2024-04-17T08:20:35.671Z,25.5700
2024-04-17T08:21:37.810Z,25.5600
2024-04-17T08:22:40.016Z,25.5700
2024-04-17T08:23:42.028Z,25.5600
2024-04-17T08:24:44.191Z,25.5600
2024-04-17T08:25:44.221Z,25.5600
2024-04-17T08:26:46.393Z,25.5700
2024-04-17T08:27:48.541Z,25.5600
2024-04-17T08:28:50.702Z,25.5700
2024-04-17T08:29:52.857Z,25.5600
2024-04-17T08:30:54.960Z,25.5800
2024-04-17T08:31:57.190Z,25.5800
2024-04-17T08:32:59.649Z,25.5800
2024-04-17T08:34:01.490Z,25.5600
2024-04-17T08:35:03.745Z,25.5500
2024-04-17T08:36:05.757Z,25.5300
2024-04-17T08:37:07.972Z,25.5200
2024-04-17T08:38:10.166Z,25.5100
2024-04-17T08:39:12.287Z,25.5000
2024-04-17T08:40:14.418Z,25.4800
2024-04-17T08:41:16.634Z,25.4700
2024-04-17T08:42:18.866Z,25.4600
2024-04-17T08:43:21.073Z,25.4500
2024-04-17T08:44:23.320Z,25.4600
2024-04-17T08:45:39.612Z,25.4600
2024-04-17T08:46:27.671Z,25.4300
2024-04-17T08:47:29.896Z,25.4400
2024-04-17T08:48:29.917Z,25.4500
2024-04-17T08:49:32.028Z,25.4500
2024-04-17T08:50:34.251Z,25.4500
2024-04-17T08:51:36.365Z,25.4500
2024-04-17T08:52:38.555Z,25.4500
2024-04-17T08:53:40.768Z,25.4500
2024-04-17T08:54:42.992Z,25.4500
2024-04-17T08:55:45.262Z,25.4500
2024-04-17T08:56:47.403Z,25.4500
2024-04-17T08:57:49.607Z,25.4500
2024-04-17T09:00:13.284Z,25.4200
2024-04-17T09:01:15.443Z,25.4300
2024-04-17T09:02:17.754Z,25.4400
2024-04-17T09:03:19.899Z,25.4400
2024-04-17T09:04:21.930Z,25.4500
2024-04-17T09:05:24.122Z,25.4600
2024-04-17T09:06:26.333Z,25.4600
2024-04-17T09:07:28.610Z,25.4600
2024-04-17T09:08:30.764Z,25.4600
2024-04-17T09:09:32.899Z,25.4700
2024-04-17T09:10:35.043Z,25.4700
2024-04-17T09:11:37.287Z,25.4600
2024-04-17T09:12:39.402Z,25.4700
2024-04-17T09:13:41.671Z,25.4700
2024-04-17T09:14:50.684Z,25.4700
2024-04-17T09:15:45.995Z,25.4700
2024-04-17T09:16:48.253Z,25.4800
2024-04-17T09:17:50.437Z,25.4900
2024-04-17T09:18:52.652Z,25.4900
2024-04-17T09:19:52.731Z,25.4800
2024-04-17T09:20:54.926Z,25.4800
2024-04-17T09:21:57.127Z,25.4900
2024-04-17T09:22:59.318Z,25.4900
2024-04-17T09:24:01.491Z,25.4900
2024-04-17T09:25:03.670Z,25.4900
2024-04-17T09:26:05.931Z,25.4900
2024-04-17T09:27:08.113Z,25.5000
2024-04-17T09:28:10.496Z,25.5100
2024-04-17T09:29:12.549Z,25.5100
2024-04-17T09:30:14.750Z,25.5200
2024-04-17T09:31:16.933Z,25.5200
2024-04-17T09:32:19.161Z,25.5300
2024-04-17T09:33:21.413Z,25.5300
2024-04-17T09:34:23.531Z,25.5400
2024-04-17T09:35:25.710Z,25.5400
2024-04-17T09:36:27.909Z,25.5300
2024-04-17T09:37:28.026Z,25.5200
2024-04-17T09:38:30.206Z,25.5200
2024-04-17T09:39:32.450Z,25.5100
2024-04-17T09:40:34.641Z,25.5200
2024-04-17T09:41:36.837Z,25.5100
2024-04-17T09:42:39.042Z,25.5200
2024-04-17T09:43:41.263Z,25.5300
2024-04-17T09:44:43.475Z,25.5400
2024-04-17T09:45:45.642Z,25.5600
2024-04-17T09:46:47.834Z,25.5700
2024-04-17T09:47:50.017Z,25.5800
2024-04-17T09:48:52.199Z,25.5900
2024-04-17T09:49:54.516Z,25.6000
2024-04-17T09:50:56.649Z,25.6000
2024-04-17T09:51:58.842Z,25.6000
2024-04-17T09:53:01.372Z,25.6100
2024-04-17T09:54:01.164Z,25.6000
2024-04-17T09:55:03.452Z,25.6100
2024-04-17T09:56:05.708Z,25.6100
2024-04-17T09:57:07.889Z,25.6100
2024-04-17T09:58:10.106Z,25.6100
2024-04-17T09:59:12.358Z,25.6100
2024-04-17T10:00:14.620Z,25.6100
2024-04-17T10:01:16.842Z,25.6000
2024-04-17T10:02:19.091Z,25.6000
2024-04-17T10:03:21.139Z,25.5900
2024-04-17T10:04:23.317Z,25.5900
2024-04-17T10:05:25.564Z,25.5900
2024-04-17T10:06:27.723Z,25.5900
2024-04-17T10:07:29.960Z,25.6100
2024-04-17T10:08:30.006Z,25.6200
2024-04-17T10:09:32.234Z,25.6300
2024-04-17T10:10:34.478Z,25.6300
2024-04-17T10:11:36.710Z,25.6300
2024-04-17T10:12:38.879Z,25.6500
2024-04-17T10:13:41.095Z,25.6600
2024-04-17T10:14:43.350Z,25.6700
2024-04-17T10:15:45.595Z,25.6800
2024-04-17T10:16:47.838Z,25.6800
2024-04-17T10:17:50.167Z,25.6800
2024-04-17T10:18:52.248Z,25.6900
2024-04-17T10:19:54.522Z,25.6900
2024-04-17T10:20:56.684Z,25.6900
2024-04-17T10:21:56.724Z,25.6900
2024-04-17T10:22:59.047Z,25.6900
2024-04-17T10:24:01.115Z,25.6900
2024-04-17T10:25:03.310Z,25.6900
2024-04-17T10:26:05.582Z,25.6900
2024-04-17T10:27:07.673Z,25.6900
2024-04-17T10:28:12.236Z,25.6800
2024-04-17T10:29:11.984Z,25.6800
2024-04-17T10:30:14.183Z,25.6800
2024-04-17T10:31:16.408Z,25.6800
2024-04-17T10:32:18.684Z,25.6800
2024-04-17T10:33:20.849Z,25.6800
2024-04-17T10:34:22.881Z,25.6800
2024-04-17T10:35:25.056Z,25.6800
2024-04-17T10:36:27.243Z,25.6800
2024-04-17T10:37:29.468Z,25.6800
2024-04-17T10:38:34.731Z,25.6800
2024-04-17T10:39:34.004Z,25.6700
2024-04-17T10:40:36.077Z,25.6700
2024-04-17T10:41:38.329Z,25.6700
2024-04-17T10:42:40.497Z,25.6700
2024-04-17T10:43:40.561Z,25.6700
2024-04-17T10:44:42.761Z,25.6700
2024-04-17T10:45:44.985Z,25.6700
2024-04-17T10:46:47.282Z,25.6700
2024-04-17T10:47:49.495Z,25.6800
2024-04-17T10:48:51.711Z,25.6400
2024-04-17T10:49:53.886Z,25.6100
2024-04-17T10:50:55.981Z,25.5900
2024-04-17T10:51:58.175Z,25.5800
2024-04-17T10:53:00.392Z,25.5900
2024-04-17T10:54:02.399Z,25.5900
2024-04-17T10:55:04.534Z,25.6200
2024-04-17T10:56:06.727Z,25.6400
2024-04-17T10:57:08.898Z,25.6500
2024-04-17T10:58:11.058Z,25.6600
2024-04-17T10:59:13.237Z,25.6800
2024-04-17T11:00:15.419Z,25.6900
2024-04-17T11:01:17.587Z,25.7000
2024-04-17T11:02:19.771Z,25.7000
2024-04-17T11:03:22.014Z,25.7100
2024-04-17T11:04:24.251Z,25.7100
2024-04-17T11:05:24.267Z,25.7100
2024-04-17T11:06:26.457Z,25.7100
2024-04-17T11:07:28.728Z,25.7100
2024-04-17T11:08:30.881Z,25.7000
2024-04-17T11:09:33.050Z,25.7000
2024-04-17T11:10:35.264Z,25.6900
2024-04-17T11:11:37.507Z,25.6800
2024-04-17T11:12:39.664Z,25.6800
2024-04-17T11:13:41.854Z,25.6700
2024-04-17T11:14:43.957Z,25.6700
2024-04-17T11:15:46.128Z,25.6700
2024-04-17T11:16:48.762Z,25.6600
2024-04-17T11:17:50.625Z,25.6500
2024-04-17T11:18:52.765Z,25.6400
2024-04-17T11:19:55.038Z,25.6400
2024-04-17T11:20:57.231Z,25.6400
2024-04-17T11:21:59.468Z,25.6300
2024-04-17T11:23:01.828Z,25.6300
2024-04-17T11:24:01.768Z,25.6100
2024-04-17T11:25:03.983Z,25.6100
2024-04-17T11:26:06.176Z,25.6100
2024-04-17T11:27:08.346Z,25.6100
2024-04-17T11:28:10.578Z,25.6100
2024-04-17T11:29:12.789Z,25.6100
2024-04-17T11:30:15.002Z,25.6300
2024-04-17T11:31:17.261Z,25.6200
2024-04-17T11:32:19.539Z,25.6400
2024-04-17T11:33:21.892Z,25.6500
2024-04-17T11:34:23.958Z,25.6600
2024-04-17T11:35:26.128Z,25.6600
2024-04-17T11:36:28.289Z,25.6600
2024-04-17T11:37:30.510Z,25.6600
2024-04-17T11:38:32.687Z,25.6500
2024-04-17T11:39:35.875Z,25.6500
2024-04-17T11:40:34.971Z,25.6300
2024-04-17T11:41:37.083Z,25.6400
2024-04-17T11:42:39.283Z,25.6400
2024-04-17T11:43:41.516Z,25.6500
2024-04-17T11:44:43.810Z,25.6500
2024-04-17T11:45:45.891Z,25.6400
2024-04-17T11:46:48.145Z,25.6400
2024-04-17T11:47:50.388Z,25.6400
2024-04-17T11:48:52.561Z,25.6400
2024-04-17T11:49:54.596Z,25.6400
2024-04-17T11:50:56.723Z,25.6600
2024-04-17T11:51:58.899Z,25.6600
2024-04-17T11:53:01.264Z,25.6700
2024-04-17T11:54:03.245Z,25.6700
2024-04-17T11:55:05.359Z,25.6700
2024-04-17T11:56:07.630Z,25.6700
2024-04-17T11:57:12.518Z,25.6800
2024-04-17T11:58:11.944Z,25.6500
2024-04-17T11:59:14.162Z,25.6600
2024-04-17T12:00:16.336Z,25.6800
2024-04-17T12:01:18.533Z,25.6800
2024-04-17T12:02:18.560Z,25.6900
2024-04-17T12:03:20.794Z,25.6900
2024-04-17T12:04:23.094Z,25.7000
2024-04-17T12:05:25.271Z,25.6900
2024-04-17T12:06:27.460Z,25.7000
2024-04-17T12:07:29.657Z,25.7000
2024-04-17T12:08:31.834Z,25.7000
2024-04-17T12:09:34.086Z,25.6900
2024-04-17T12:10:36.300Z,25.6900
2024-04-17T12:11:40.179Z,25.6800
2024-04-17T12:12:40.737Z,25.6800
2024-04-17T12:13:42.983Z,25.6900
2024-04-17T12:14:45.198Z,25.6900
2024-04-17T12:15:47.436Z,25.7000
2024-04-17T12:16:49.700Z,25.6800
2024-04-17T12:17:49.594Z,25.6700
2024-04-17T12:19:22.008Z,25.6400
2024-04-17T12:20:24.166Z,25.6500
2024-04-17T12:21:26.284Z,25.6600
2024-04-17T12:22:28.448Z,25.6500
2024-04-17T12:23:30.580Z,25.6500
2024-04-17T12:24:32.730Z,25.6500
2024-04-17T12:25:34.935Z,25.6500
2024-04-17T12:26:37.027Z,25.6400
2024-04-17T12:27:39.175Z,25.6300
2024-04-17T12:28:39.191Z,25.6300
2024-04-17T12:29:41.303Z,25.6300
2024-04-17T12:30:43.445Z,25.6300
2024-04-17T12:31:45.635Z,25.6400
2024-04-17T12:32:48.044Z,25.6200
2024-04-17T12:33:50.010Z,25.6300
2024-04-17T12:34:52.162Z,25.6400